ELY2653 LLBG-UKBB
Flight info
| Callsign | ELY2653 |
|---|---|
| Flight time | 2h 54m |
| Altitude | 36000 |
| Route | DAFNA W13 VELOX N71 DESPO DCT VOLBE DCT VESAR UB545 MUT UA28 BAG DCT RAKUR M856 LAROM M435 RASIL DCT BAREN M435 MIMKO T219 KONIP |
| Aircraft | B738/M-VGDW/C |
Departure
| Time | 2026-05-07 13:41 |
|---|---|
| Airport | Ben Gurion International Airport (LLBG) |
Arrival
| Time | 2026-05-07 16:35 |
|---|---|
| Airport | Boryspil International Airport (UKBB) |
| Time | Latitude | Longitude | Altitude | Speed | Heading |
|---|---|---|---|---|---|
| 2026-05-07 13:24 | 32.00431 | 34.87553 | 143 ft | 0 kts | 228° |
| 2026-05-07 13:29 | 32.00434 | 34.87557 | 143 ft | 2 kts | 226° |
| 2026-05-07 13:29 | 32.00448 | 34.87570 | 143 ft | 3 kts | 202° |
| 2026-05-07 13:29 | 32.00467 | 34.87577 | 143 ft | 3 kts | 187° |
| 2026-05-07 13:30 | 32.00487 | 34.87579 | 143 ft | 3 kts | 194° |
| 2026-05-07 13:30 | 32.00505 | 34.87588 | 143 ft | 3 kts | 217° |
| 2026-05-07 13:30 | 32.00519 | 34.87604 | 143 ft | 3 kts | 234° |
| 2026-05-07 13:30 | 32.00526 | 34.87616 | 143 ft | 2 kts | 237° |
| 2026-05-07 13:31 | 32.00535 | 34.87634 | 143 ft | 3 kts | 253° |
| 2026-05-07 13:31 | 32.00537 | 34.87656 | 143 ft | 3 kts | 284° |
| 2026-05-07 13:31 | 32.00529 | 34.87675 | 143 ft | 3 kts | 319° |
| 2026-05-07 13:31 | 32.00513 | 34.87687 | 143 ft | 3 kts | 339° |
| 2026-05-07 13:32 | 32.00493 | 34.87694 | 143 ft | 3 kts | 347° |
| 2026-05-07 13:32 | 32.00478 | 34.87698 | 143 ft | 0 kts | 347° |
| 2026-05-07 13:35 | 32.00488 | 34.87696 | 143 ft | 4 kts | 347° |
| 2026-05-07 13:35 | 32.00528 | 34.87685 | 143 ft | 8 kts | 348° |
| 2026-05-07 13:35 | 32.00589 | 34.87699 | 143 ft | 11 kts | 30° |
| 2026-05-07 13:35 | 32.00633 | 34.87760 | 143 ft | 10 kts | 85° |
| 2026-05-07 13:36 | 32.00603 | 34.87831 | 143 ft | 10 kts | 122° |
| 2026-05-07 13:36 | 32.00585 | 34.87903 | 143 ft | 9 kts | 78° |
| 2026-05-07 13:36 | 32.00631 | 34.87949 | 143 ft | 10 kts | 30° |
| 2026-05-07 13:36 | 32.00699 | 34.87998 | 143 ft | 12 kts | 31° |
| 2026-05-07 13:37 | 32.00771 | 34.88049 | 143 ft | 14 kts | 31° |
| 2026-05-07 13:37 | 32.00882 | 34.88128 | 143 ft | 22 kts | 30° |
| 2026-05-07 13:37 | 32.01012 | 34.88223 | 143 ft | 21 kts | 32° |
| 2026-05-07 13:37 | 32.01136 | 34.88311 | 143 ft | 20 kts | 31° |
| 2026-05-07 13:38 | 32.01254 | 34.88398 | 143 ft | 20 kts | 37° |
| 2026-05-07 13:38 | 32.01350 | 34.88506 | 143 ft | 19 kts | 47° |
| 2026-05-07 13:38 | 32.01426 | 34.88624 | 143 ft | 18 kts | 60° |
| 2026-05-07 13:38 | 32.01477 | 34.88751 | 143 ft | 17 kts | 71° |
| 2026-05-07 13:39 | 32.01502 | 34.88880 | 143 ft | 16 kts | 80° |
| 2026-05-07 13:39 | 32.01522 | 34.89004 | 143 ft | 15 kts | 79° |
| 2026-05-07 13:39 | 32.01540 | 34.89119 | 143 ft | 14 kts | 74° |
| 2026-05-07 13:39 | 32.01616 | 34.89157 | 143 ft | 13 kts | 349° |
| 2026-05-07 13:40 | 32.01705 | 34.89138 | 143 ft | 13 kts | 349° |
| 2026-05-07 13:40 | 32.01742 | 34.89079 | 143 ft | 0 kts | 261° |
| 2026-05-07 13:40 | 32.01742 | 34.89078 | 143 ft | 0 kts | 261° |
| 2026-05-07 13:41 | 32.01710 | 34.88859 | 143 ft | 59 kts | 259° |
| 2026-05-07 13:41 | 32.01599 | 34.88132 | 143 ft | 120 kts | 261° |
| 2026-05-07 13:41 | 32.01420 | 34.86950 | 154 ft | 171 kts | 260° |
| 2026-05-07 13:41 | 32.01159 | 34.85545 | 743 ft | 180 kts | 258° |
| 2026-05-07 13:42 | 32.00817 | 34.84110 | 1611 ft | 181 kts | 256° |
| 2026-05-07 13:42 | 32.00503 | 34.82696 | 2407 ft | 181 kts | 261° |
| 2026-05-07 13:42 | 32.00238 | 34.81215 | 3195 ft | 184 kts | 261° |
| 2026-05-07 13:42 | 31.99950 | 34.79701 | 3780 ft | 200 kts | 260° |
| 2026-05-07 13:43 | 31.99615 | 34.78002 | 4119 ft | 225 kts | 259° |
| 2026-05-07 13:43 | 31.99295 | 34.76109 | 4574 ft | 244 kts | 268° |
| 2026-05-07 13:43 | 31.99416 | 34.74063 | 5116 ft | 259 kts | 283° |
| 2026-05-07 13:43 | 31.99924 | 34.71983 | 5752 ft | 269 kts | 292° |
| 2026-05-07 13:44 | 32.00625 | 34.69944 | 6552 ft | 274 kts | 293° |
| 2026-05-07 13:44 | 32.01324 | 34.67827 | 7333 ft | 281 kts | 291° |
| 2026-05-07 13:44 | 32.02116 | 34.65683 | 7789 ft | 282 kts | 303° |
| 2026-05-07 13:44 | 32.03438 | 34.64028 | 7970 ft | 282 kts | 326° |
| 2026-05-07 13:45 | 32.05218 | 34.63039 | 8475 ft | 286 kts | 340° |
| 2026-05-07 13:45 | 32.07117 | 34.62317 | 9351 ft | 286 kts | 344° |
| 2026-05-07 13:45 | 32.09046 | 34.61700 | 10198 ft | 289 kts | 345° |
| 2026-05-07 13:45 | 32.11010 | 34.61110 | 10905 ft | 296 kts | 345° |
| 2026-05-07 13:46 | 32.13065 | 34.60490 | 11274 ft | 314 kts | 345° |
| 2026-05-07 13:46 | 32.15251 | 34.59831 | 11557 ft | 334 kts | 344° |
| 2026-05-07 13:46 | 32.17567 | 34.59130 | 11881 ft | 351 kts | 344° |
| 2026-05-07 13:46 | 32.19960 | 34.58403 | 12464 ft | 358 kts | 344° |
| 2026-05-07 13:47 | 32.22382 | 34.57666 | 13207 ft | 360 kts | 344° |
| 2026-05-07 13:47 | 32.24813 | 34.56926 | 13928 ft | 362 kts | 344° |
| 2026-05-07 13:47 | 32.27260 | 34.56179 | 14639 ft | 365 kts | 344° |
| 2026-05-07 13:47 | 32.29729 | 34.55426 | 15334 ft | 367 kts | 343° |
| 2026-05-07 13:48 | 32.32209 | 34.54668 | 16007 ft | 370 kts | 343° |
| 2026-05-07 13:48 | 32.34706 | 34.53906 | 16669 ft | 372 kts | 343° |
| 2026-05-07 13:48 | 32.37224 | 34.53142 | 17308 ft | 374 kts | 343° |
| 2026-05-07 13:48 | 32.39750 | 34.52376 | 17925 ft | 377 kts | 343° |
| 2026-05-07 13:49 | 32.42295 | 34.51602 | 18521 ft | 380 kts | 343° |
| 2026-05-07 13:49 | 32.44868 | 34.50819 | 19059 ft | 383 kts | 343° |
| 2026-05-07 13:49 | 32.47461 | 34.50028 | 19626 ft | 386 kts | 343° |
| 2026-05-07 13:49 | 32.50075 | 34.49229 | 20187 ft | 389 kts | 343° |
| 2026-05-07 13:50 | 32.52704 | 34.48424 | 20720 ft | 392 kts | 343° |
| 2026-05-07 13:50 | 32.55358 | 34.47612 | 21223 ft | 395 kts | 343° |
| 2026-05-07 13:50 | 32.58030 | 34.46793 | 21739 ft | 398 kts | 343° |
| 2026-05-07 13:50 | 32.60722 | 34.45968 | 22202 ft | 401 kts | 343° |
| 2026-05-07 13:51 | 32.63399 | 34.45147 | 22661 ft | 404 kts | 343° |
| 2026-05-07 13:51 | 32.66132 | 34.44308 | 23130 ft | 407 kts | 343° |
| 2026-05-07 13:51 | 32.68881 | 34.43464 | 23589 ft | 409 kts | 342° |
| 2026-05-07 13:51 | 32.71644 | 34.42614 | 24016 ft | 412 kts | 342° |
| 2026-05-07 13:52 | 32.74436 | 34.41755 | 24435 ft | 415 kts | 342° |
| 2026-05-07 13:52 | 32.77239 | 34.40893 | 24841 ft | 418 kts | 342° |
| 2026-05-07 13:52 | 32.80057 | 34.40025 | 25264 ft | 420 kts | 342° |
| 2026-05-07 13:52 | 32.82895 | 34.39150 | 25654 ft | 423 kts | 342° |
| 2026-05-07 13:53 | 32.85750 | 34.38269 | 26051 ft | 425 kts | 342° |
| 2026-05-07 13:53 | 32.88620 | 34.37383 | 26415 ft | 428 kts | 342° |
| 2026-05-07 13:53 | 32.91505 | 34.36492 | 26795 ft | 429 kts | 342° |
| 2026-05-07 13:53 | 32.94407 | 34.35595 | 27134 ft | 432 kts | 342° |
| 2026-05-07 13:54 | 32.97322 | 34.34694 | 27474 ft | 434 kts | 342° |
| 2026-05-07 13:54 | 33.00254 | 34.33786 | 27827 ft | 436 kts | 342° |
| 2026-05-07 13:54 | 33.03202 | 34.32873 | 28151 ft | 438 kts | 342° |
| 2026-05-07 13:54 | 33.06162 | 34.31955 | 28485 ft | 440 kts | 342° |
| 2026-05-07 13:55 | 33.09130 | 34.31035 | 28793 ft | 442 kts | 342° |
| 2026-05-07 13:55 | 33.12115 | 34.30109 | 29093 ft | 444 kts | 342° |
| 2026-05-07 13:55 | 33.15114 | 34.29177 | 29413 ft | 446 kts | 342° |
| 2026-05-07 13:55 | 33.18121 | 34.28242 | 29690 ft | 448 kts | 342° |
| 2026-05-07 13:56 | 33.21134 | 34.27305 | 30078 ft | 447 kts | 341° |
| 2026-05-07 13:56 | 33.24131 | 34.26372 | 30522 ft | 444 kts | 341° |
| 2026-05-07 13:56 | 33.27120 | 34.25441 | 30915 ft | 443 kts | 341° |
| 2026-05-07 13:56 | 33.30097 | 34.24513 | 31291 ft | 442 kts | 341° |
| 2026-05-07 13:57 | 33.33070 | 34.23586 | 31664 ft | 441 kts | 341° |
| 2026-05-07 13:57 | 33.36035 | 34.22660 | 32043 ft | 440 kts | 341° |
| 2026-05-07 13:57 | 33.38989 | 34.21737 | 32395 ft | 439 kts | 341° |
| 2026-05-07 13:57 | 33.41941 | 34.20814 | 32758 ft | 437 kts | 341° |
| 2026-05-07 13:58 | 33.44882 | 34.19894 | 33101 ft | 437 kts | 341° |
| 2026-05-07 13:58 | 33.47779 | 34.18987 | 33428 ft | 436 kts | 341° |
| 2026-05-07 13:58 | 33.50747 | 34.18059 | 33768 ft | 435 kts | 341° |
| 2026-05-07 13:58 | 33.53631 | 34.17161 | 34079 ft | 434 kts | 341° |
| 2026-05-07 13:59 | 33.56585 | 34.16236 | 34399 ft | 433 kts | 341° |
| 2026-05-07 13:59 | 33.59465 | 34.15332 | 34621 ft | 434 kts | 341° |
| 2026-05-07 13:59 | 33.62424 | 34.14401 | 34901 ft | 434 kts | 341° |
| 2026-05-07 13:59 | 33.65308 | 34.13493 | 35177 ft | 434 kts | 341° |
| 2026-05-07 14:00 | 33.68266 | 34.12561 | 35435 ft | 434 kts | 341° |
| 2026-05-07 14:00 | 33.71178 | 34.11642 | 35687 ft | 434 kts | 341° |
| 2026-05-07 14:00 | 33.74103 | 34.10719 | 35940 ft | 434 kts | 341° |
| 2026-05-07 14:00 | 33.76991 | 34.09808 | 36084 ft | 436 kts | 341° |
| 2026-05-07 14:01 | 33.79945 | 34.08955 | 36097 ft | 439 kts | 345° |
| 2026-05-07 14:01 | 33.86038 | 34.08177 | 36099 ft | 441 kts | 353° |
| 2026-05-07 14:02 | 33.92173 | 34.07981 | 36101 ft | 441 kts | 354° |
| 2026-05-07 14:02 | 33.98312 | 34.07800 | 36102 ft | 441 kts | 354° |
| 2026-05-07 14:03 | 34.04453 | 34.07612 | 36103 ft | 441 kts | 354° |
| 2026-05-07 14:03 | 34.10594 | 34.07421 | 36104 ft | 441 kts | 354° |
| 2026-05-07 14:04 | 34.15695 | 34.07261 | 36105 ft | 441 kts | 354° |
| 2026-05-07 14:04 | 34.21837 | 34.07069 | 36106 ft | 441 kts | 354° |
| 2026-05-07 14:05 | 34.27976 | 34.06876 | 36106 ft | 441 kts | 354° |
| 2026-05-07 14:05 | 34.34115 | 34.06683 | 36107 ft | 441 kts | 354° |
| 2026-05-07 14:06 | 34.40242 | 34.06489 | 36108 ft | 440 kts | 354° |
| 2026-05-07 14:06 | 34.46373 | 34.06295 | 36109 ft | 441 kts | 354° |
| 2026-05-07 14:07 | 34.52502 | 34.06100 | 36109 ft | 440 kts | 354° |
| 2026-05-07 14:07 | 34.58620 | 34.05906 | 36110 ft | 440 kts | 354° |
| 2026-05-07 14:08 | 34.64737 | 34.05711 | 36110 ft | 440 kts | 354° |
| 2026-05-07 14:08 | 34.70855 | 34.05517 | 36110 ft | 439 kts | 354° |
| 2026-05-07 14:09 | 34.76922 | 34.05323 | 36111 ft | 439 kts | 354° |
| 2026-05-07 14:09 | 34.83028 | 34.05128 | 36111 ft | 439 kts | 354° |
| 2026-05-07 14:10 | 34.89121 | 34.04933 | 36111 ft | 438 kts | 354° |
| 2026-05-07 14:10 | 34.95210 | 34.04738 | 36111 ft | 437 kts | 354° |
| 2026-05-07 14:11 | 35.01286 | 34.04543 | 36111 ft | 437 kts | 354° |
| 2026-05-07 14:11 | 35.07358 | 34.04348 | 36110 ft | 436 kts | 354° |
| 2026-05-07 14:12 | 35.13421 | 34.04152 | 36111 ft | 436 kts | 354° |
| 2026-05-07 14:12 | 35.19472 | 34.03957 | 36111 ft | 435 kts | 353° |
| 2026-05-07 14:13 | 35.25520 | 34.03762 | 36112 ft | 434 kts | 354° |
| 2026-05-07 14:13 | 35.31553 | 34.03567 | 36112 ft | 433 kts | 353° |
| 2026-05-07 14:14 | 35.37579 | 34.03372 | 36112 ft | 433 kts | 353° |
| 2026-05-07 14:14 | 35.43599 | 34.03176 | 36112 ft | 432 kts | 353° |
| 2026-05-07 14:15 | 35.49610 | 34.02981 | 36112 ft | 432 kts | 354° |
| 2026-05-07 14:15 | 35.55610 | 34.02786 | 36112 ft | 431 kts | 353° |
| 2026-05-07 14:16 | 35.61605 | 34.02591 | 36112 ft | 431 kts | 353° |
| 2026-05-07 14:16 | 35.67595 | 34.02396 | 36111 ft | 430 kts | 353° |
| 2026-05-07 14:17 | 35.73578 | 34.02201 | 36111 ft | 430 kts | 353° |
| 2026-05-07 14:17 | 35.79512 | 34.02006 | 36112 ft | 429 kts | 353° |
| 2026-05-07 14:18 | 35.85481 | 34.01810 | 36111 ft | 429 kts | 353° |
| 2026-05-07 14:18 | 35.91307 | 34.00783 | 36111 ft | 419 kts | 337° |
| 2026-05-07 14:19 | 35.96553 | 33.97745 | 36112 ft | 416 kts | 327° |
| 2026-05-07 14:19 | 36.01519 | 33.94112 | 36111 ft | 415 kts | 326° |
| 2026-05-07 14:20 | 36.06440 | 33.90399 | 36112 ft | 415 kts | 326° |
| 2026-05-07 14:20 | 36.11359 | 33.86668 | 36112 ft | 415 kts | 325° |
| 2026-05-07 14:21 | 36.16272 | 33.82932 | 36113 ft | 414 kts | 326° |
| 2026-05-07 14:21 | 36.21175 | 33.79200 | 36113 ft | 415 kts | 326° |
| 2026-05-07 14:22 | 36.26096 | 33.75452 | 36117 ft | 415 kts | 326° |
| 2026-05-07 14:22 | 36.31011 | 33.71705 | 36117 ft | 414 kts | 326° |
| 2026-05-07 14:23 | 36.35921 | 33.67951 | 36121 ft | 414 kts | 326° |
| 2026-05-07 14:23 | 36.40823 | 33.64196 | 36120 ft | 414 kts | 326° |
| 2026-05-07 14:24 | 36.45719 | 33.60440 | 36119 ft | 414 kts | 326° |
| 2026-05-07 14:24 | 36.50617 | 33.56677 | 36130 ft | 414 kts | 326° |
| 2026-05-07 14:25 | 36.55511 | 33.52917 | 36134 ft | 414 kts | 326° |
| 2026-05-07 14:25 | 36.60431 | 33.49176 | 36135 ft | 414 kts | 326° |
| 2026-05-07 14:26 | 36.65329 | 33.45423 | 36136 ft | 413 kts | 326° |
| 2026-05-07 14:26 | 36.70216 | 33.41650 | 36137 ft | 413 kts | 326° |
| 2026-05-07 14:27 | 36.75067 | 33.37895 | 36139 ft | 413 kts | 326° |
| 2026-05-07 14:27 | 36.79945 | 33.34112 | 36140 ft | 413 kts | 326° |
| 2026-05-07 14:28 | 36.84936 | 33.30573 | 36142 ft | 415 kts | 335° |
| 2026-05-07 14:28 | 36.90535 | 33.28695 | 36144 ft | 419 kts | 347° |
| 2026-05-07 14:29 | 36.96325 | 33.27717 | 36146 ft | 420 kts | 349° |
| 2026-05-07 14:29 | 37.02118 | 33.26857 | 36149 ft | 419 kts | 349° |
| 2026-05-07 14:30 | 37.07906 | 33.26000 | 36162 ft | 419 kts | 349° |
| 2026-05-07 14:30 | 37.13699 | 33.25142 | 36170 ft | 419 kts | 349° |
| 2026-05-07 14:31 | 37.19488 | 33.24283 | 36167 ft | 419 kts | 349° |
| 2026-05-07 14:31 | 37.25231 | 33.23439 | 36168 ft | 418 kts | 349° |
| 2026-05-07 14:32 | 37.31004 | 33.22585 | 36170 ft | 418 kts | 349° |
| 2026-05-07 14:32 | 37.36818 | 33.21723 | 36172 ft | 418 kts | 349° |
| 2026-05-07 14:33 | 37.42592 | 33.20864 | 36175 ft | 417 kts | 349° |
| 2026-05-07 14:33 | 37.48357 | 33.20006 | 36178 ft | 417 kts | 349° |
| 2026-05-07 14:34 | 37.54086 | 33.19151 | 36180 ft | 417 kts | 349° |
| 2026-05-07 14:34 | 37.59842 | 33.18291 | 36182 ft | 417 kts | 349° |
| 2026-05-07 14:35 | 37.65595 | 33.17430 | 36184 ft | 416 kts | 349° |
| 2026-05-07 14:35 | 37.71348 | 33.16570 | 36186 ft | 416 kts | 349° |
| 2026-05-07 14:36 | 37.77100 | 33.15709 | 36188 ft | 416 kts | 349° |
| 2026-05-07 14:36 | 37.82853 | 33.14843 | 36189 ft | 416 kts | 349° |
| 2026-05-07 14:37 | 37.88603 | 33.13975 | 36191 ft | 416 kts | 349° |
| 2026-05-07 14:37 | 37.97229 | 33.12671 | 36192 ft | 416 kts | 349° |
| 2026-05-07 14:38 | 38.02977 | 33.11802 | 36194 ft | 415 kts | 350° |
| 2026-05-07 14:38 | 38.08705 | 33.10970 | 36194 ft | 414 kts | 350° |
| 2026-05-07 14:39 | 38.14433 | 33.10137 | 36194 ft | 414 kts | 350° |
| 2026-05-07 14:39 | 38.20161 | 33.09301 | 36194 ft | 414 kts | 350° |
| 2026-05-07 14:40 | 38.25884 | 33.08464 | 36194 ft | 414 kts | 350° |
| 2026-05-07 14:40 | 38.31609 | 33.07625 | 36193 ft | 414 kts | 350° |
| 2026-05-07 14:41 | 38.37333 | 33.06787 | 36193 ft | 414 kts | 350° |
| 2026-05-07 14:41 | 38.43063 | 33.05952 | 36192 ft | 414 kts | 350° |
| 2026-05-07 14:42 | 38.48782 | 33.05114 | 36191 ft | 414 kts | 350° |
| 2026-05-07 14:42 | 38.54505 | 33.04273 | 36191 ft | 414 kts | 350° |
| 2026-05-07 14:43 | 38.60220 | 33.03431 | 36190 ft | 414 kts | 350° |
| 2026-05-07 14:43 | 38.65937 | 33.02587 | 36189 ft | 414 kts | 350° |
| 2026-05-07 14:44 | 38.71653 | 33.01742 | 36189 ft | 413 kts | 350° |
| 2026-05-07 14:44 | 38.77363 | 33.00896 | 36188 ft | 413 kts | 350° |
| 2026-05-07 14:45 | 38.83081 | 33.00049 | 36190 ft | 414 kts | 350° |
| 2026-05-07 14:45 | 38.88802 | 32.99199 | 36188 ft | 414 kts | 350° |
| 2026-05-07 14:46 | 38.94523 | 32.98353 | 36188 ft | 414 kts | 350° |
| 2026-05-07 14:46 | 39.00246 | 32.97500 | 36186 ft | 414 kts | 350° |
| 2026-05-07 14:47 | 39.05961 | 32.96645 | 36185 ft | 414 kts | 350° |
| 2026-05-07 14:47 | 39.11679 | 32.95788 | 36186 ft | 413 kts | 350° |
| 2026-05-07 14:48 | 39.17393 | 32.94931 | 36185 ft | 413 kts | 350° |
| 2026-05-07 14:48 | 39.23104 | 32.94082 | 36184 ft | 414 kts | 351° |
| 2026-05-07 14:49 | 39.28833 | 32.93308 | 36181 ft | 414 kts | 351° |
| 2026-05-07 14:49 | 39.34553 | 32.92522 | 36180 ft | 414 kts | 351° |
| 2026-05-07 14:50 | 39.40266 | 32.91691 | 36179 ft | 413 kts | 350° |
| 2026-05-07 14:50 | 39.45930 | 32.90779 | 36177 ft | 413 kts | 350° |
| 2026-05-07 14:51 | 39.51631 | 32.89865 | 36176 ft | 413 kts | 350° |
| 2026-05-07 14:51 | 39.57329 | 32.88956 | 36175 ft | 413 kts | 350° |
| 2026-05-07 14:52 | 39.63034 | 32.88044 | 36174 ft | 413 kts | 350° |
| 2026-05-07 14:52 | 39.68729 | 32.87133 | 36175 ft | 412 kts | 350° |
| 2026-05-07 14:53 | 39.74425 | 32.86226 | 36173 ft | 412 kts | 350° |
| 2026-05-07 14:53 | 39.80124 | 32.85323 | 36172 ft | 412 kts | 350° |
| 2026-05-07 14:54 | 39.84854 | 32.84564 | 36172 ft | 412 kts | 350° |
| 2026-05-07 14:54 | 39.90549 | 32.83647 | 36172 ft | 412 kts | 350° |
| 2026-05-07 14:55 | 39.96241 | 32.82729 | 36171 ft | 412 kts | 350° |
| 2026-05-07 14:55 | 40.01935 | 32.81809 | 36171 ft | 412 kts | 350° |
| 2026-05-07 14:56 | 40.07618 | 32.80832 | 36171 ft | 411 kts | 347° |
| 2026-05-07 14:56 | 40.13202 | 32.79243 | 36171 ft | 410 kts | 344° |
| 2026-05-07 14:57 | 40.18746 | 32.77488 | 36171 ft | 410 kts | 344° |
| 2026-05-07 14:57 | 40.24302 | 32.75760 | 36170 ft | 410 kts | 345° |
| 2026-05-07 14:58 | 40.29854 | 32.74049 | 36170 ft | 410 kts | 345° |
| 2026-05-07 14:58 | 40.35413 | 32.72340 | 36169 ft | 410 kts | 345° |
| 2026-05-07 14:59 | 40.40970 | 32.70636 | 36168 ft | 410 kts | 345° |
| 2026-05-07 14:59 | 40.46492 | 32.68958 | 36167 ft | 410 kts | 345° |
| 2026-05-07 15:00 | 40.52089 | 32.67247 | 36166 ft | 411 kts | 345° |
| 2026-05-07 15:00 | 40.57663 | 32.65538 | 36164 ft | 411 kts | 345° |
| 2026-05-07 15:01 | 40.63227 | 32.63827 | 36163 ft | 411 kts | 345° |
| 2026-05-07 15:01 | 40.68756 | 32.62124 | 36161 ft | 411 kts | 345° |
| 2026-05-07 15:02 | 40.74323 | 32.60406 | 36160 ft | 411 kts | 345° |
| 2026-05-07 15:02 | 40.79896 | 32.58683 | 36158 ft | 411 kts | 345° |
| 2026-05-07 15:03 | 40.85469 | 32.56957 | 36156 ft | 411 kts | 345° |
| 2026-05-07 15:03 | 40.91046 | 32.55226 | 36156 ft | 412 kts | 345° |
| 2026-05-07 15:04 | 40.96627 | 32.53492 | 36156 ft | 412 kts | 345° |
| 2026-05-07 15:04 | 41.02207 | 32.51754 | 36154 ft | 412 kts | 345° |
| 2026-05-07 15:05 | 41.07785 | 32.50014 | 36150 ft | 413 kts | 345° |
| 2026-05-07 15:05 | 41.13378 | 32.48267 | 36151 ft | 413 kts | 345° |
| 2026-05-07 15:06 | 41.18968 | 32.46517 | 36150 ft | 413 kts | 345° |
| 2026-05-07 15:06 | 41.24551 | 32.44767 | 36148 ft | 412 kts | 345° |
| 2026-05-07 15:07 | 41.30147 | 32.43009 | 36148 ft | 413 kts | 345° |
| 2026-05-07 15:07 | 41.35743 | 32.41248 | 36145 ft | 413 kts | 345° |
| 2026-05-07 15:08 | 41.41335 | 32.39486 | 36143 ft | 413 kts | 345° |
| 2026-05-07 15:08 | 41.46926 | 32.37720 | 36144 ft | 413 kts | 345° |
| 2026-05-07 15:09 | 41.52520 | 32.35951 | 36144 ft | 414 kts | 345° |
| 2026-05-07 15:09 | 41.58126 | 32.34174 | 36144 ft | 414 kts | 345° |
| 2026-05-07 15:10 | 41.63722 | 32.32398 | 36145 ft | 412 kts | 345° |
| 2026-05-07 15:10 | 41.69268 | 32.30634 | 36145 ft | 408 kts | 345° |
| 2026-05-07 15:11 | 41.74802 | 32.28870 | 36145 ft | 409 kts | 345° |
| 2026-05-07 15:11 | 41.80333 | 32.27105 | 36145 ft | 409 kts | 345° |
| 2026-05-07 15:12 | 41.85865 | 32.25336 | 36145 ft | 409 kts | 345° |
| 2026-05-07 15:12 | 41.91396 | 32.23565 | 36146 ft | 409 kts | 345° |
| 2026-05-07 15:13 | 41.96926 | 32.21790 | 36146 ft | 409 kts | 345° |
| 2026-05-07 15:13 | 42.02456 | 32.20013 | 36146 ft | 409 kts | 345° |
| 2026-05-07 15:14 | 42.07992 | 32.18230 | 36147 ft | 409 kts | 345° |
| 2026-05-07 15:14 | 42.13490 | 32.16456 | 36147 ft | 409 kts | 345° |
| 2026-05-07 15:15 | 42.19034 | 32.14663 | 36148 ft | 409 kts | 345° |
| 2026-05-07 15:15 | 42.24571 | 32.12872 | 36148 ft | 409 kts | 345° |
| 2026-05-07 15:16 | 42.30112 | 32.11074 | 36148 ft | 409 kts | 345° |
| 2026-05-07 15:16 | 42.35655 | 32.09274 | 36148 ft | 410 kts | 345° |
| 2026-05-07 15:17 | 42.41204 | 32.07467 | 36149 ft | 410 kts | 345° |
| 2026-05-07 15:17 | 42.46757 | 32.05656 | 36149 ft | 411 kts | 345° |
| 2026-05-07 15:18 | 42.52327 | 32.03849 | 36149 ft | 411 kts | 345° |
| 2026-05-07 15:18 | 42.57884 | 32.02031 | 36149 ft | 411 kts | 345° |
| 2026-05-07 15:19 | 42.63451 | 32.00202 | 36149 ft | 412 kts | 345° |
| 2026-05-07 15:19 | 42.69021 | 31.98367 | 36149 ft | 411 kts | 345° |
| 2026-05-07 15:20 | 42.74582 | 31.96533 | 36149 ft | 412 kts | 345° |
| 2026-05-07 15:20 | 42.80162 | 31.94690 | 36149 ft | 413 kts | 345° |
| 2026-05-07 15:21 | 42.85752 | 31.92888 | 36149 ft | 413 kts | 345° |
| 2026-05-07 15:21 | 42.91319 | 31.91090 | 36149 ft | 414 kts | 345° |
| 2026-05-07 15:22 | 42.96916 | 31.89277 | 36149 ft | 414 kts | 345° |
| 2026-05-07 15:22 | 43.02524 | 31.87455 | 36149 ft | 414 kts | 345° |
| 2026-05-07 15:23 | 43.08143 | 31.85628 | 36149 ft | 415 kts | 345° |
| 2026-05-07 15:23 | 43.13774 | 31.83797 | 36148 ft | 416 kts | 345° |
| 2026-05-07 15:24 | 43.19414 | 31.81985 | 36148 ft | 417 kts | 345° |
| 2026-05-07 15:24 | 43.25057 | 31.80149 | 36148 ft | 417 kts | 345° |
| 2026-05-07 15:25 | 43.30704 | 31.78300 | 36138 ft | 417 kts | 345° |
| 2026-05-07 15:25 | 43.36359 | 31.76442 | 36134 ft | 418 kts | 345° |
| 2026-05-07 15:26 | 43.42014 | 31.74581 | 36133 ft | 418 kts | 345° |
| 2026-05-07 15:26 | 43.47677 | 31.72716 | 36134 ft | 419 kts | 345° |
| 2026-05-07 15:27 | 43.53335 | 31.70813 | 36133 ft | 419 kts | 345° |
| 2026-05-07 15:27 | 43.59002 | 31.68900 | 36133 ft | 420 kts | 345° |
| 2026-05-07 15:28 | 43.64670 | 31.66982 | 36133 ft | 420 kts | 345° |
| 2026-05-07 15:28 | 43.70343 | 31.65059 | 36132 ft | 419 kts | 345° |
| 2026-05-07 15:29 | 43.76011 | 31.63133 | 36133 ft | 419 kts | 345° |
| 2026-05-07 15:29 | 43.81686 | 31.61209 | 36133 ft | 421 kts | 345° |
| 2026-05-07 15:30 | 43.87374 | 31.59289 | 36132 ft | 420 kts | 345° |
| 2026-05-07 15:30 | 43.93050 | 31.57359 | 36132 ft | 420 kts | 345° |
| 2026-05-07 15:31 | 43.98733 | 31.55421 | 36132 ft | 420 kts | 345° |
| 2026-05-07 15:31 | 44.04417 | 31.53491 | 36132 ft | 421 kts | 345° |
| 2026-05-07 15:32 | 44.10109 | 31.51540 | 36131 ft | 421 kts | 345° |
| 2026-05-07 15:32 | 44.15798 | 31.49581 | 36130 ft | 421 kts | 345° |
| 2026-05-07 15:33 | 44.21484 | 31.47619 | 36129 ft | 421 kts | 345° |
| 2026-05-07 15:33 | 44.27172 | 31.45655 | 36128 ft | 421 kts | 345° |
| 2026-05-07 15:34 | 44.32960 | 31.44385 | 36128 ft | 422 kts | 355° |
| 2026-05-07 15:34 | 44.38801 | 31.44133 | 36128 ft | 423 kts | 357° |
| 2026-05-07 15:35 | 44.44686 | 31.44000 | 36125 ft | 423 kts | 357° |
| 2026-05-07 15:35 | 44.50565 | 31.43862 | 36125 ft | 423 kts | 357° |
| 2026-05-07 15:36 | 44.56450 | 31.43722 | 36125 ft | 423 kts | 357° |
| 2026-05-07 15:36 | 44.62338 | 31.43581 | 36125 ft | 424 kts | 357° |
| 2026-05-07 15:37 | 44.68234 | 31.43440 | 36124 ft | 424 kts | 357° |
| 2026-05-07 15:37 | 44.74125 | 31.43299 | 36124 ft | 423 kts | 357° |
| 2026-05-07 15:38 | 44.80017 | 31.43158 | 36124 ft | 423 kts | 357° |
| 2026-05-07 15:38 | 44.85906 | 31.43016 | 36124 ft | 423 kts | 357° |
| 2026-05-07 15:39 | 44.91797 | 31.42871 | 36125 ft | 423 kts | 357° |
| 2026-05-07 15:39 | 44.97697 | 31.42729 | 36124 ft | 424 kts | 357° |
| 2026-05-07 15:40 | 45.03599 | 31.42586 | 36124 ft | 424 kts | 357° |
| 2026-05-07 15:40 | 45.09503 | 31.42443 | 36118 ft | 424 kts | 358° |
| 2026-05-07 15:41 | 45.15402 | 31.42300 | 36103 ft | 424 kts | 358° |
| 2026-05-07 15:41 | 45.21300 | 31.42155 | 36095 ft | 425 kts | 358° |
| 2026-05-07 15:42 | 45.26215 | 31.42035 | 36093 ft | 425 kts | 358° |
| 2026-05-07 15:42 | 45.33122 | 31.41864 | 36092 ft | 425 kts | 358° |
| 2026-05-07 15:43 | 45.38031 | 31.41743 | 36092 ft | 425 kts | 358° |
| 2026-05-07 15:43 | 45.43945 | 31.41551 | 36091 ft | 425 kts | 356° |
| 2026-05-07 15:44 | 45.49858 | 31.41215 | 36090 ft | 425 kts | 356° |
| 2026-05-07 15:44 | 45.55768 | 31.40887 | 36089 ft | 425 kts | 356° |
| 2026-05-07 15:45 | 45.61681 | 31.40564 | 36088 ft | 425 kts | 356° |
| 2026-05-07 15:45 | 45.67596 | 31.40242 | 36088 ft | 426 kts | 356° |
| 2026-05-07 15:46 | 45.76479 | 31.39761 | 36086 ft | 426 kts | 356° |
| 2026-05-07 15:47 | 45.82401 | 31.39443 | 36085 ft | 426 kts | 356° |
| 2026-05-07 15:47 | 45.88321 | 31.39122 | 36085 ft | 426 kts | 356° |
| 2026-05-07 15:48 | 45.94243 | 31.38801 | 36083 ft | 426 kts | 356° |
| 2026-05-07 15:48 | 46.00163 | 31.38479 | 36082 ft | 426 kts | 356° |
| 2026-05-07 15:49 | 46.06050 | 31.38158 | 36082 ft | 427 kts | 356° |
| 2026-05-07 15:49 | 46.11980 | 31.37834 | 36081 ft | 426 kts | 356° |
| 2026-05-07 15:50 | 46.17909 | 31.37509 | 36080 ft | 426 kts | 356° |
| 2026-05-07 15:50 | 46.23841 | 31.37183 | 36079 ft | 426 kts | 356° |
| 2026-05-07 15:51 | 46.29770 | 31.36857 | 36078 ft | 427 kts | 356° |
| 2026-05-07 15:51 | 46.35714 | 31.36529 | 36077 ft | 427 kts | 356° |
| 2026-05-07 15:52 | 46.41652 | 31.36200 | 36077 ft | 427 kts | 356° |
| 2026-05-07 15:52 | 46.47600 | 31.35871 | 36076 ft | 427 kts | 356° |
| 2026-05-07 15:53 | 46.53540 | 31.35541 | 36075 ft | 427 kts | 356° |
| 2026-05-07 15:53 | 46.59484 | 31.35210 | 36074 ft | 427 kts | 356° |
| 2026-05-07 15:54 | 46.65426 | 31.34879 | 36074 ft | 427 kts | 356° |
| 2026-05-07 15:54 | 46.71367 | 31.34546 | 36073 ft | 427 kts | 356° |
| 2026-05-07 15:55 | 46.77311 | 31.34213 | 36072 ft | 427 kts | 356° |
| 2026-05-07 15:55 | 46.83253 | 31.33880 | 36072 ft | 427 kts | 356° |
| 2026-05-07 15:56 | 46.89191 | 31.33546 | 36071 ft | 427 kts | 356° |
| 2026-05-07 15:56 | 46.95137 | 31.33210 | 36071 ft | 427 kts | 356° |
| 2026-05-07 15:57 | 47.01090 | 31.32874 | 36054 ft | 428 kts | 356° |
| 2026-05-07 15:57 | 47.07043 | 31.32537 | 36043 ft | 428 kts | 356° |
| 2026-05-07 15:58 | 47.12959 | 31.32201 | 36040 ft | 428 kts | 356° |
| 2026-05-07 15:58 | 47.18912 | 31.31862 | 36040 ft | 428 kts | 356° |
| 2026-05-07 15:59 | 47.24866 | 31.31523 | 36040 ft | 428 kts | 356° |
| 2026-05-07 15:59 | 47.30830 | 31.31182 | 36041 ft | 429 kts | 356° |
| 2026-05-07 16:00 | 47.36796 | 31.30840 | 36041 ft | 429 kts | 356° |
| 2026-05-07 16:00 | 47.42761 | 31.30497 | 36040 ft | 429 kts | 356° |
| 2026-05-07 16:01 | 47.48725 | 31.30154 | 36040 ft | 429 kts | 356° |
| 2026-05-07 16:01 | 47.54692 | 31.29810 | 36042 ft | 429 kts | 356° |
| 2026-05-07 16:02 | 47.60664 | 31.29465 | 36042 ft | 430 kts | 356° |
| 2026-05-07 16:02 | 47.66639 | 31.29118 | 36041 ft | 430 kts | 356° |
| 2026-05-07 16:03 | 47.72614 | 31.28774 | 36040 ft | 430 kts | 356° |
| 2026-05-07 16:03 | 47.78592 | 31.28426 | 36040 ft | 430 kts | 356° |
| 2026-05-07 16:04 | 47.84570 | 31.28076 | 36039 ft | 430 kts | 356° |
| 2026-05-07 16:04 | 47.90544 | 31.27726 | 36038 ft | 430 kts | 356° |
| 2026-05-07 16:05 | 47.96517 | 31.27373 | 36037 ft | 430 kts | 356° |
| 2026-05-07 16:05 | 48.02496 | 31.27024 | 36036 ft | 430 kts | 356° |
| 2026-05-07 16:06 | 48.08491 | 31.26671 | 36035 ft | 431 kts | 356° |
| 2026-05-07 16:06 | 48.14479 | 31.26318 | 36034 ft | 431 kts | 356° |
| 2026-05-07 16:07 | 48.20471 | 31.25963 | 36033 ft | 431 kts | 356° |
| 2026-05-07 16:07 | 48.26464 | 31.25607 | 36032 ft | 431 kts | 356° |
| 2026-05-07 16:08 | 48.32455 | 31.25143 | 36031 ft | 431 kts | 355° |
| 2026-05-07 16:08 | 48.38434 | 31.24594 | 36030 ft | 431 kts | 355° |
| 2026-05-07 16:09 | 48.44422 | 31.24044 | 36029 ft | 431 kts | 355° |
| 2026-05-07 16:09 | 48.50407 | 31.23494 | 36030 ft | 431 kts | 355° |
| 2026-05-07 16:10 | 48.56399 | 31.22942 | 35910 ft | 433 kts | 355° |
| 2026-05-07 16:10 | 48.59404 | 31.22665 | 35510 ft | 431 kts | 355° |
| 2026-05-07 16:10 | 48.62390 | 31.22391 | 34854 ft | 430 kts | 355° |
| 2026-05-07 16:10 | 48.65379 | 31.22119 | 34286 ft | 429 kts | 355° |
| 2026-05-07 16:11 | 48.68339 | 31.21848 | 33801 ft | 424 kts | 355° |
| 2026-05-07 16:11 | 48.71231 | 31.21582 | 33334 ft | 421 kts | 355° |
| 2026-05-07 16:11 | 48.74143 | 31.21314 | 32866 ft | 417 kts | 355° |
| 2026-05-07 16:11 | 48.77023 | 31.21048 | 32406 ft | 413 kts | 355° |
| 2026-05-07 16:12 | 48.79916 | 31.20781 | 31946 ft | 409 kts | 355° |
| 2026-05-07 16:12 | 48.82746 | 31.20519 | 31499 ft | 406 kts | 355° |
| 2026-05-07 16:12 | 48.85556 | 31.20258 | 31056 ft | 403 kts | 355° |
| 2026-05-07 16:12 | 48.88344 | 31.19999 | 30618 ft | 400 kts | 355° |
| 2026-05-07 16:13 | 48.91073 | 31.19745 | 30192 ft | 397 kts | 355° |
| 2026-05-07 16:13 | 48.93819 | 31.19490 | 29767 ft | 394 kts | 355° |
| 2026-05-07 16:13 | 48.96543 | 31.19236 | 29343 ft | 392 kts | 355° |
| 2026-05-07 16:13 | 48.99255 | 31.18983 | 28918 ft | 389 kts | 355° |
| 2026-05-07 16:14 | 49.01949 | 31.18732 | 28494 ft | 387 kts | 355° |
| 2026-05-07 16:14 | 49.04626 | 31.18481 | 28070 ft | 384 kts | 355° |
| 2026-05-07 16:14 | 49.07285 | 31.18233 | 27647 ft | 382 kts | 355° |
| 2026-05-07 16:14 | 49.09931 | 31.17985 | 27226 ft | 380 kts | 355° |
| 2026-05-07 16:15 | 49.12565 | 31.17738 | 26805 ft | 378 kts | 355° |
| 2026-05-07 16:15 | 49.15181 | 31.17492 | 26385 ft | 376 kts | 355° |
| 2026-05-07 16:15 | 49.17785 | 31.17247 | 25967 ft | 374 kts | 355° |
| 2026-05-07 16:15 | 49.20378 | 31.17003 | 25548 ft | 372 kts | 355° |
| 2026-05-07 16:16 | 49.22955 | 31.16760 | 25130 ft | 371 kts | 355° |
| 2026-05-07 16:16 | 49.25522 | 31.16517 | 24713 ft | 369 kts | 355° |
| 2026-05-07 16:16 | 49.28078 | 31.16276 | 24345 ft | 366 kts | 355° |
| 2026-05-07 16:16 | 49.30632 | 31.16035 | 24085 ft | 371 kts | 355° |
| 2026-05-07 16:17 | 49.33225 | 31.15790 | 23836 ft | 376 kts | 355° |
| 2026-05-07 16:17 | 49.35829 | 31.15544 | 23523 ft | 373 kts | 355° |
| 2026-05-07 16:17 | 49.38419 | 31.15298 | 23112 ft | 371 kts | 355° |
| 2026-05-07 16:17 | 49.40988 | 31.15055 | 22697 ft | 369 kts | 355° |
| 2026-05-07 16:18 | 49.43548 | 31.14812 | 22278 ft | 368 kts | 355° |
| 2026-05-07 16:18 | 49.46095 | 31.14570 | 21859 ft | 366 kts | 355° |
| 2026-05-07 16:18 | 49.48632 | 31.14328 | 21439 ft | 364 kts | 355° |
| 2026-05-07 16:18 | 49.51154 | 31.14088 | 21020 ft | 362 kts | 355° |
| 2026-05-07 16:19 | 49.53664 | 31.13848 | 20604 ft | 361 kts | 355° |
| 2026-05-07 16:19 | 49.56163 | 31.13609 | 20189 ft | 359 kts | 355° |
| 2026-05-07 16:19 | 49.58654 | 31.13371 | 19776 ft | 358 kts | 355° |
| 2026-05-07 16:19 | 49.61132 | 31.13135 | 19364 ft | 356 kts | 355° |
| 2026-05-07 16:20 | 49.63598 | 31.12898 | 18955 ft | 355 kts | 355° |
| 2026-05-07 16:20 | 49.66054 | 31.12662 | 18545 ft | 353 kts | 355° |
| 2026-05-07 16:20 | 49.68503 | 31.12425 | 18138 ft | 352 kts | 355° |
| 2026-05-07 16:20 | 49.70942 | 31.12191 | 17732 ft | 350 kts | 355° |
| 2026-05-07 16:21 | 49.73368 | 31.11959 | 17327 ft | 349 kts | 355° |
| 2026-05-07 16:21 | 49.75780 | 31.11727 | 16924 ft | 347 kts | 355° |
| 2026-05-07 16:21 | 49.78192 | 31.11493 | 16518 ft | 346 kts | 355° |
| 2026-05-07 16:21 | 49.80592 | 31.11263 | 16115 ft | 345 kts | 355° |
| 2026-05-07 16:22 | 49.82982 | 31.11033 | 15713 ft | 344 kts | 355° |
| 2026-05-07 16:22 | 49.85361 | 31.10803 | 15313 ft | 343 kts | 355° |
| 2026-05-07 16:22 | 49.87737 | 31.10573 | 14914 ft | 341 kts | 355° |
| 2026-05-07 16:22 | 49.90103 | 31.10344 | 14517 ft | 340 kts | 355° |
| 2026-05-07 16:23 | 49.92459 | 31.10116 | 14121 ft | 339 kts | 355° |
| 2026-05-07 16:23 | 49.94813 | 31.09888 | 13725 ft | 338 kts | 356° |
| 2026-05-07 16:23 | 49.97156 | 31.09660 | 13330 ft | 337 kts | 356° |
| 2026-05-07 16:23 | 49.99489 | 31.09433 | 12937 ft | 336 kts | 356° |
| 2026-05-07 16:24 | 50.01816 | 31.09207 | 12542 ft | 335 kts | 355° |
| 2026-05-07 16:24 | 50.04137 | 31.08982 | 12148 ft | 334 kts | 355° |
| 2026-05-07 16:24 | 50.06450 | 31.08756 | 11754 ft | 333 kts | 355° |
| 2026-05-07 16:24 | 50.08760 | 31.08530 | 11380 ft | 332 kts | 355° |
| 2026-05-07 16:25 | 50.11057 | 31.08305 | 11009 ft | 330 kts | 355° |
| 2026-05-07 16:25 | 50.13344 | 31.08082 | 10630 ft | 329 kts | 355° |
| 2026-05-07 16:25 | 50.15625 | 31.07856 | 10245 ft | 328 kts | 355° |
| 2026-05-07 16:25 | 50.17899 | 31.07633 | 9861 ft | 327 kts | 355° |
| 2026-05-07 16:26 | 50.20165 | 31.07411 | 9472 ft | 326 kts | 355° |
| 2026-05-07 16:26 | 50.22430 | 31.07192 | 9090 ft | 326 kts | 355° |
| 2026-05-07 16:26 | 50.24699 | 31.06972 | 8696 ft | 326 kts | 355° |
| 2026-05-07 16:26 | 50.26194 | 31.06827 | 8435 ft | 326 kts | 355° |
| 2026-05-07 16:27 | 50.29217 | 31.06532 | 7909 ft | 324 kts | 355° |
| 2026-05-07 16:27 | 50.31467 | 31.06307 | 7518 ft | 324 kts | 355° |
| 2026-05-07 16:27 | 50.33723 | 31.06084 | 7116 ft | 324 kts | 355° |
| 2026-05-07 16:27 | 50.35971 | 31.05868 | 6713 ft | 324 kts | 355° |
| 2026-05-07 16:28 | 50.38222 | 31.05647 | 6312 ft | 324 kts | 355° |
| 2026-05-07 16:28 | 50.40470 | 31.05433 | 5893 ft | 325 kts | 355° |
| 2026-05-07 16:28 | 50.42725 | 31.05203 | 5472 ft | 325 kts | 355° |
| 2026-05-07 16:28 | 50.44219 | 31.05053 | 5195 ft | 324 kts | 355° |
| 2026-05-07 16:29 | 50.46466 | 31.04826 | 4786 ft | 320 kts | 355° |
| 2026-05-07 16:29 | 50.49305 | 31.04548 | 4246 ft | 298 kts | 355° |
| 2026-05-07 16:29 | 50.51312 | 31.04138 | 3875 ft | 280 kts | 340° |
| 2026-05-07 16:29 | 50.52458 | 31.03314 | 3643 ft | 267 kts | 326° |
| 2026-05-07 16:30 | 50.53842 | 31.01561 | 3393 ft | 246 kts | 309° |
| 2026-05-07 16:30 | 50.54694 | 30.99306 | 3100 ft | 237 kts | 285° |
| 2026-05-07 16:30 | 50.55061 | 30.96022 | 2987 ft | 227 kts | 268° |
| 2026-05-07 16:30 | 50.54938 | 30.94383 | 2957 ft | 222 kts | 246° |
| 2026-05-07 16:31 | 50.54005 | 30.92657 | 2932 ft | 200 kts | 206° |
| 2026-05-07 16:31 | 50.52735 | 30.92122 | 2999 ft | 184 kts | 191° |
| 2026-05-07 16:31 | 50.51492 | 30.91853 | 3045 ft | 178 kts | 187° |
| 2026-05-07 16:31 | 50.50264 | 30.91716 | 3023 ft | 175 kts | 185° |
| 2026-05-07 16:32 | 50.49046 | 30.91614 | 2925 ft | 177 kts | 185° |
| 2026-05-07 16:32 | 50.47811 | 30.91516 | 2711 ft | 175 kts | 184° |
| 2026-05-07 16:32 | 50.46635 | 30.91428 | 2483 ft | 168 kts | 185° |
| 2026-05-07 16:32 | 50.45473 | 30.91340 | 2265 ft | 166 kts | 184° |
| 2026-05-07 16:33 | 50.44330 | 30.91256 | 2035 ft | 162 kts | 184° |
| 2026-05-07 16:33 | 50.43228 | 30.91175 | 1826 ft | 155 kts | 184° |
| 2026-05-07 16:33 | 50.42177 | 30.91097 | 1635 ft | 148 kts | 184° |
| 2026-05-07 16:33 | 50.41159 | 30.91022 | 1434 ft | 145 kts | 184° |
| 2026-05-07 16:34 | 50.40159 | 30.90949 | 1240 ft | 143 kts | 184° |
| 2026-05-07 16:34 | 50.39158 | 30.90868 | 1061 ft | 144 kts | 184° |
| 2026-05-07 16:34 | 50.38161 | 30.90800 | 862 ft | 144 kts | 182° |
| 2026-05-07 16:34 | 50.37167 | 30.90735 | 681 ft | 143 kts | 184° |
| 2026-05-07 16:35 | 50.36176 | 30.90654 | 495 ft | 142 kts | 183° |
| 2026-05-07 16:35 | 50.35235 | 30.90589 | 436 ft | 121 kts | 184° |
| 2026-05-07 16:35 | 50.34649 | 30.90543 | 435 ft | 51 kts | 184° |
| 2026-05-07 16:35 | 50.34356 | 30.90519 | 435 ft | 39 kts | 187° |
| 2026-05-07 16:36 | 50.34144 | 30.90405 | 435 ft | 25 kts | 212° |
| 2026-05-07 16:36 | 50.34024 | 30.90266 | 435 ft | 15 kts | 243° |
| 2026-05-07 16:36 | 50.34075 | 30.90175 | 435 ft | 13 kts | 359° |
| 2026-05-07 16:36 | 50.34165 | 30.90183 | 435 ft | 13 kts | 3° |
| 2026-05-07 16:37 | 50.34250 | 30.90189 | 435 ft | 12 kts | 2° |
| 2026-05-07 16:37 | 50.34333 | 30.90194 | 435 ft | 12 kts | 4° |
| 2026-05-07 16:37 | 50.34412 | 30.90201 | 435 ft | 11 kts | 2° |
| 2026-05-07 16:37 | 50.34493 | 30.90207 | 435 ft | 12 kts | 2° |
| 2026-05-07 16:38 | 50.34573 | 30.90212 | 435 ft | 11 kts | 2° |
| 2026-05-07 16:38 | 50.34650 | 30.90218 | 435 ft | 11 kts | 2° |
| 2026-05-07 16:38 | 50.34724 | 30.90223 | 435 ft | 11 kts | 2° |
| 2026-05-07 16:38 | 50.34815 | 30.90230 | 435 ft | 13 kts | 2° |
| 2026-05-07 16:39 | 50.34877 | 30.90161 | 435 ft | 13 kts | 274° |
| 2026-05-07 16:39 | 50.34881 | 30.90024 | 435 ft | 12 kts | 276° |
| 2026-05-07 16:39 | 50.34946 | 30.89965 | 435 ft | 12 kts | 1° |
| 2026-05-07 16:39 | 50.35027 | 30.89970 | 435 ft | 11 kts | 2° |
| 2026-05-07 16:40 | 50.35075 | 30.90010 | 435 ft | 8 kts | 87° |
| 2026-05-07 16:40 | 50.35073 | 30.90088 | 435 ft | 2 kts | 92° |
| 2026-05-07 16:40 | 50.35073 | 30.90092 | 435 ft | 0 kts | 92° |